sensor_id;sensor_type;location;lat;lon;timestamp;pressure;altitude;pressure_sealevel;temperature;humidity
78354;BME280;67629;46.040;18.232;2023-09-19T00:00:46;99301.59;;;23.01;69.39
78354;BME280;67629;46.040;18.232;2023-09-19T00:01:33;99299.94;;;23.00;69.81
78354;BME280;67629;46.040;18.232;2023-09-19T00:02:19;99310.44;;;23.03;69.70
78354;BME280;67629;46.040;18.232;2023-09-19T00:03:05;99303.06;;;22.99;69.57
78354;BME280;67629;46.040;18.232;2023-09-19T00:03:51;99305.53;;;23.00;69.74
78354;BME280;67629;46.040;18.232;2023-09-19T00:04:38;99302.91;;;23.04;69.76
78354;BME280;67629;46.040;18.232;2023-09-19T00:05:29;99304.03;;;23.03;69.34
78354;BME280;67629;46.040;18.232;2023-09-19T00:06:15;99308.13;;;23.05;69.96
78354;BME280;67629;46.040;18.232;2023-09-19T00:07:01;99303.06;;;22.99;69.77
78354;BME280;67629;46.040;18.232;2023-09-19T00:07:48;99295.03;;;22.97;69.64
78354;BME280;67629;46.040;18.232;2023-09-19T00:08:36;99292.41;;;23.01;69.82
78354;BME280;67629;46.040;18.232;2023-09-19T00:09:22;99293.28;;;22.93;69.68
78354;BME280;67629;46.040;18.232;2023-09-19T00:10:10;99296.06;;;22.93;70.22
78354;BME280;67629;46.040;18.232;2023-09-19T00:10:57;99294.88;;;22.94;70.14
78354;BME280;67629;46.040;18.232;2023-09-19T00:11:51;99294.56;;;22.95;70.38
78354;BME280;67629;46.040;18.232;2023-09-19T00:12:21;99286.88;;;22.92;70.27
78354;BME280;67629;46.040;18.232;2023-09-19T00:13:08;99289.97;;;22.91;70.16
78354;BME280;67629;46.040;18.232;2023-09-19T00:13:58;99294.91;;;22.85;70.55
78354;BME280;67629;46.040;18.232;2023-09-19T00:14:46;99294.59;;;22.87;70.55
78354;BME280;67629;46.040;18.232;2023-09-19T00:15:42;99283.28;;;22.83;70.91
78354;BME280;67629;46.040;18.232;2023-09-19T00:16:13;99275.75;;;22.84;70.56
78354;BME280;67629;46.040;18.232;2023-09-19T00:17:00;99279.88;;;22.78;70.83
78354;BME280;67629;46.040;18.232;2023-09-19T00:17:31;99283.81;;;22.77;71.13
78354;BME280;67629;46.040;18.232;2023-09-19T00:18:02;99271.19;;;22.70;71.25
78354;BME280;67629;46.040;18.232;2023-09-19T00:18:37;99278.06;;;22.73;71.13
78354;BME280;67629;46.040;18.232;2023-09-19T00:19:23;99268.94;;;22.73;71.81
78354;BME280;67629;46.040;18.232;2023-09-19T00:19:54;99274.31;;;22.78;71.32
78354;BME280;67629;46.040;18.232;2023-09-19T00:20:25;99267.75;;;22.74;71.01
78354;BME280;67629;46.040;18.232;2023-09-19T00:20:58;99276.28;;;22.77;70.75
78354;BME280;67629;46.040;18.232;2023-09-19T00:21:31;99272.66;;;22.77;70.93
78354;BME280;67629;46.040;18.232;2023-09-19T00:22:17;99277.41;;;22.76;70.67
78354;BME280;67629;46.040;18.232;2023-09-19T00:23:04;99277.91;;;22.78;71.24
78354;BME280;67629;46.040;18.232;2023-09-19T00:23:39;99273.00;;;22.75;70.99
78354;BME280;67629;46.040;18.232;2023-09-19T00:24:27;99272.19;;;22.75;71.39
78354;BME280;67629;46.040;18.232;2023-09-19T00:25:13;99273.47;;;22.77;71.04
78354;BME280;67629;46.040;18.232;2023-09-19T00:25:45;99267.09;;;22.77;70.73
78354;BME280;67629;46.040;18.232;2023-09-19T00:26:16;99274.47;;;22.81;70.44
78354;BME280;67629;46.040;18.232;2023-09-19T00:26:48;99266.13;;;22.81;70.72
78354;BME280;67629;46.040;18.232;2023-09-19T00:27:19;99271.84;;;22.76;70.75
78354;BME280;67629;46.040;18.232;2023-09-19T00:27:49;99269.41;;;22.75;70.88
78354;BME280;67629;46.040;18.232;2023-09-19T00:28:22;99270.22;;;22.75;70.98
78354;BME280;67629;46.040;18.232;2023-09-19T00:33:30;99276.91;;;22.83;71.08
78354;BME280;67629;46.040;18.232;2023-09-19T00:34:00;99280.69;;;22.78;71.05
78354;BME280;67629;46.040;18.232;2023-09-19T00:34:40;99280.84;;;22.73;70.92
78354;BME280;67629;46.040;18.232;2023-09-19T00:35:16;99284.47;;;22.74;71.01
78354;BME280;67629;46.040;18.232;2023-09-19T00:35:53;99279.25;;;22.72;71.33
78354;BME280;67629;46.040;18.232;2023-09-19T00:36:24;99278.72;;;22.70;71.29
78354;BME280;67629;46.040;18.232;2023-09-19T00:36:55;99274.16;;;22.74;70.71
78354;BME280;67629;46.040;18.232;2023-09-19T00:37:26;99273.66;;;22.72;71.23
78354;BME280;67629;46.040;18.232;2023-09-19T00:37:56;99275.94;;;22.70;71.34
78354;BME280;67629;46.040;18.232;2023-09-19T00:38:27;99277.94;;;22.69;71.47
78354;BME280;67629;46.040;18.232;2023-09-19T00:38:57;99277.44;;;22.67;71.61
78354;BME280;67629;46.040;18.232;2023-09-19T00:39:28;99272.22;;;22.66;72.01
78354;BME280;67629;46.040;18.232;2023-09-19T00:40:03;99282.22;;;22.67;71.99
78354;BME280;67629;46.040;18.232;2023-09-19T00:40:36;99277.13;;;22.69;72.14
78354;BME280;67629;46.040;18.232;2023-09-19T00:41:07;99277.78;;;22.66;71.63
78354;BME280;67629;46.040;18.232;2023-09-19T00:41:37;99273.66;;;22.63;71.97
78354;BME280;67629;46.040;18.232;2023-09-19T00:42:08;99277.94;;;22.61;72.84
78354;BME280;67629;46.040;18.232;2023-09-19T00:42:39;99282.19;;;22.58;72.59
78354;BME280;67629;46.040;18.232;2023-09-19T00:43:11;99276.94;;;22.57;72.34
78354;BME280;67629;46.040;18.232;2023-09-19T00:43:41;99269.72;;;22.56;72.25
78354;BME280;67629;46.040;18.232;2023-09-19T00:44:12;99275.66;;;22.54;72.63
78354;BME280;67629;46.040;18.232;2023-09-19T00:44:43;99278.25;;;22.59;72.21
78354;BME280;67629;46.040;18.232;2023-09-19T00:45:15;99282.34;;;22.62;72.60
78354;BME280;67629;46.040;18.232;2023-09-19T00:45:48;99277.78;;;22.66;72.08
78354;BME280;67629;46.040;18.232;2023-09-19T00:46:19;99280.56;;;22.66;71.81
78354;BME280;67629;46.040;18.232;2023-09-19T00:46:50;99274.53;;;22.64;71.91
78354;BME280;67629;46.040;18.232;2023-09-19T00:47:21;99274.66;;;22.67;71.71
78354;BME280;67629;46.040;18.232;2023-09-19T00:47:52;99279.56;;;22.70;71.66
78354;BME280;67629;46.040;18.232;2023-09-19T00:48:24;99273.16;;;22.70;71.59
78354;BME280;67629;46.040;18.232;2023-09-19T00:48:57;99270.72;;;22.68;71.75
78354;BME280;67629;46.040;18.232;2023-09-19T00:49:28;99274.16;;;22.65;71.74
78354;BME280;67629;46.040;18.232;2023-09-19T00:49:59;99273.34;;;22.65;71.36
78354;BME280;67629;46.040;18.232;2023-09-19T00:50:30;99273.66;;;22.63;71.78
78354;BME280;67629;46.040;18.232;2023-09-19T00:51:04;99272.53;;;22.64;71.73
78354;BME280;67629;46.040;18.232;2023-09-19T00:51:35;99276.28;;;22.68;71.50
78354;BME280;67629;46.040;18.232;2023-09-19T00:52:06;99267.94;;;22.68;71.77
78354;BME280;67629;46.040;18.232;2023-09-19T00:52:38;99271.56;;;22.69;71.08
78354;BME280;67629;46.040;18.232;2023-09-19T00:53:14;99270.06;;;22.72;71.37
78354;BME280;67629;46.040;18.232;2023-09-19T00:53:46;99270.06;;;22.72;71.01
78354;BME280;67629;46.040;18.232;2023-09-19T00:54:18;99268.56;;;22.74;71.05
78354;BME280;67629;46.040;18.232;2023-09-19T00:54:49;99275.13;;;22.78;71.27
78354;BME280;67629;46.040;18.232;2023-09-19T00:55:21;99269.56;;;22.78;71.26
78354;BME280;67629;46.040;18.232;2023-09-19T00:55:52;99281.00;;;22.77;71.39
78354;BME280;67629;46.040;18.232;2023-09-19T00:56:23;99269.72;;;22.73;71.36
78354;BME280;67629;46.040;18.232;2023-09-19T00:56:53;99273.00;;;22.75;71.29
78354;BME280;67629;46.040;18.232;2023-09-19T00:57:25;99275.28;;;22.73;71.17
78354;BME280;67629;46.040;18.232;2023-09-19T00:57:56;99276.28;;;22.77;71.26
78354;BME280;67629;46.040;18.232;2023-09-19T00:58:27;99269.56;;;22.78;71.39
78354;BME280;67629;46.040;18.232;2023-09-19T00:59:02;99280.03;;;22.81;70.68
78354;BME280;67629;46.040;18.232;2023-09-19T00:59:34;99264.47;;;22.80;70.99
78354;BME280;67629;46.040;18.232;2023-09-19T01:00:07;99274.47;;;22.81;70.87
78354;BME280;67629;46.040;18.232;2023-09-19T01:01:12;99271.34;;;22.83;70.56
78354;BME280;67629;46.040;18.232;2023-09-19T01:01:43;99273.66;;;22.72;71.58
78354;BME280;67629;46.040;18.232;2023-09-19T01:02:16;99271.38;;;22.65;71.73
78354;BME280;67629;46.040;18.232;2023-09-19T01:02:47;99275.81;;;22.66;71.96
78354;BME280;67629;46.040;18.232;2023-09-19T01:03:18;99274.34;;;22.69;71.42
78354;BME280;67629;46.040;18.232;2023-09-19T01:03:49;99271.88;;;22.67;71.48
78354;BME280;67629;46.040;18.232;2023-09-19T01:04:20;99277.94;;;22.69;71.49
78354;BME280;67629;46.040;18.232;2023-09-19T01:04:51;99270.56;;;22.65;71.54
78354;BME280;67629;46.040;18.232;2023-09-19T01:05:21;99262.53;;;22.63;71.25
78354;BME280;67629;46.040;18.232;2023-09-19T01:05:54;99267.47;;;22.66;71.13
78354;BME280;67629;46.040;18.232;2023-09-19T01:06:25;99272.38;;;22.69;71.23
78354;BME280;67629;46.040;18.232;2023-09-19T01:06:56;99279.06;;;22.68;71.28
78354;BME280;67629;46.040;18.232;2023-09-19T01:07:30;99272.84;;;22.63;71.50
78354;BME280;67629;46.040;18.232;2023-09-19T01:08:01;99277.31;;;22.64;71.50
78354;BME280;67629;46.040;18.232;2023-09-19T01:08:32;99272.53;;;22.64;71.23
78354;BME280;67629;46.040;18.232;2023-09-19T01:09:03;99276.97;;;22.65;71.64
78354;BME280;67629;46.040;18.232;2023-09-19T01:09:35;99268.59;;;22.65;71.13
78354;BME280;67629;46.040;18.232;2023-09-19T01:10:10;99271.19;;;22.62;71.10
78354;BME280;67629;46.040;18.232;2023-09-19T01:10:52;99267.47;;;22.66;71.49
78354;BME280;67629;46.040;18.232;2023-09-19T01:11:42;99266.16;;;22.64;70.93
78354;BME280;67629;46.040;18.232;2023-09-19T01:12:19;99266.81;;;22.61;71.33
78354;BME280;67629;46.040;18.232;2023-09-19T01:13:20;99271.06;;;22.58;71.53
78354;BME280;67629;46.040;18.232;2023-09-19T01:15:11;99267.28;;;22.63;71.20
78354;BME280;67629;46.040;18.232;2023-09-19T01:18:17;99258.75;;;22.59;71.36
78354;BME280;67629;46.040;18.232;2023-09-19T01:25:33;99256.81;;;22.60;71.24
78354;BME280;67629;46.040;18.232;2023-09-19T01:26:35;99265.81;;;22.57;71.09
78354;BME280;67629;46.040;18.232;2023-09-19T01:29:38;99254.88;;;22.52;71.71
78354;BME280;67629;46.040;18.232;2023-09-19T01:30:14;99253.56;;;22.49;71.58
78354;BME280;67629;46.040;18.232;2023-09-19T01:30:47;99260.09;;;22.45;71.63
78354;BME280;67629;46.040;18.232;2023-09-19T01:31:21;99258.81;;;22.42;72.01
78354;BME280;67629;46.040;18.232;2023-09-19T01:31:54;99252.41;;;22.42;72.32
78354;BME280;67629;46.040;18.232;2023-09-19T01:32:25;99260.75;;;22.42;71.92
78354;BME280;67629;46.040;18.232;2023-09-19T01:32:56;99256.84;;;22.43;72.29
78354;BME280;67629;46.040;18.232;2023-09-19T01:33:28;99257.31;;;22.45;72.05
78354;BME280;67629;46.040;18.232;2023-09-19T01:34:04;99262.56;;;22.46;72.07
78354;BME280;67629;46.040;18.232;2023-09-19T01:34:54;99267.47;;;22.49;72.19
78354;BME280;67629;46.040;18.232;2023-09-19T01:35:27;99264.84;;;22.44;71.59
78354;BME280;67629;46.040;18.232;2023-09-19T01:35:58;99265.38;;;22.38;71.98
78354;BME280;67629;46.040;18.232;2023-09-19T01:36:44;99262.25;;;22.31;72.49
78354;BME280;67629;46.040;18.232;2023-09-19T01:37:31;99258.34;;;22.32;72.42
78354;BME280;67629;46.040;18.232;2023-09-19T01:38:17;99262.75;;;22.33;72.56
78354;BME280;67629;46.040;18.232;2023-09-19T01:39:08;99265.38;;;22.38;72.10
78354;BME280;67629;46.040;18.232;2023-09-19T01:40:02;99259.81;;;22.38;72.26
78354;BME280;67629;46.040;18.232;2023-09-19T01:41:08;99262.75;;;22.33;72.35
78354;BME280;67629;46.040;18.232;2023-09-19T01:42:14;99267.81;;;22.39;72.32
78354;BME280;67629;46.040;18.232;2023-09-19T01:43:20;99266.69;;;22.32;72.77
78354;BME280;67629;46.040;18.232;2023-09-19T01:45:26;99260.97;;;22.28;72.78
78354;BME280;67629;46.040;18.232;2023-09-19T01:46:21;99270.13;;;22.29;72.79
78354;BME280;67629;46.040;18.232;2023-09-19T01:46:58;99263.91;;;22.23;73.21
78354;BME280;67629;46.040;18.232;2023-09-19T01:47:34;99267.66;;;22.27;72.66
78354;BME280;67629;46.040;18.232;2023-09-19T01:48:32;99264.88;;;22.27;72.57
78354;BME280;67629;46.040;18.232;2023-09-19T01:49:27;99269.78;;;22.30;72.34
78354;BME280;67629;46.040;18.232;2023-09-19T01:50:41;99268.47;;;22.28;72.08
78354;BME280;67629;46.040;18.232;2023-09-19T01:51:20;99274.88;;;22.28;72.24
78354;BME280;67629;46.040;18.232;2023-09-19T01:52:42;99269.00;;;22.30;72.67
78354;BME280;67629;46.040;18.232;2023-09-19T01:53:24;99276.66;;;22.33;72.45
78354;BME280;67629;46.040;18.232;2023-09-19T01:54:03;99277.47;;;22.33;72.29
78354;BME280;67629;46.040;18.232;2023-09-19T01:54:52;99266.53;;;22.28;72.90
78354;BME280;67629;46.040;18.232;2023-09-19T01:55:28;99272.56;;;22.30;72.51
78354;BME280;67629;46.040;18.232;2023-09-19T01:56:01;99269.66;;;22.27;73.01
78354;BME280;67629;46.040;18.232;2023-09-19T01:56:37;99271.28;;;22.19;73.10
78354;BME280;67629;46.040;18.232;2023-09-19T01:57:34;99265.06;;;22.22;72.82
78354;BME280;67629;46.040;18.232;2023-09-19T01:58:18;99274.06;;;22.19;72.93
78354;BME280;67629;46.040;18.232;2023-09-19T01:58:56;99270.97;;;22.21;72.96
78354;BME280;67629;46.040;18.232;2023-09-19T01:59:37;99260.97;;;22.20;73.18
78354;BME280;67629;46.040;18.232;2023-09-19T02:00:10;99265.41;;;22.21;72.46
78354;BME280;67629;46.040;18.232;2023-09-19T02:00:42;99263.75;;;22.20;73.00
78354;BME280;67629;46.040;18.232;2023-09-19T02:01:31;99268.31;;;22.15;73.22
78354;BME280;67629;46.040;18.232;2023-09-19T02:02:03;99257.06;;;22.21;73.04
78354;BME280;67629;46.040;18.232;2023-09-19T02:02:37;99272.59;;;22.22;72.87
78354;BME280;67629;46.040;18.232;2023-09-19T02:03:09;99270.13;;;22.20;72.65
78354;BME280;67629;46.040;18.232;2023-09-19T02:03:40;99270.78;;;22.17;73.25
78354;BME280;67629;46.040;18.232;2023-09-19T02:04:12;99266.72;;;22.14;73.00
78354;BME280;67629;46.040;18.232;2023-09-19T02:04:43;99266.22;;;22.12;73.33
78354;BME280;67629;46.040;18.232;2023-09-19T02:05:22;99264.59;;;22.11;73.42
78354;BME280;67629;46.040;18.232;2023-09-19T02:05:54;99267.53;;;22.15;73.26
78354;BME280;67629;46.040;18.232;2023-09-19T02:06:25;99259.50;;;22.13;73.05
78354;BME280;67629;46.040;18.232;2023-09-19T02:06:55;99264.25;;;22.13;73.34
78354;BME280;67629;46.040;18.232;2023-09-19T02:07:27;99265.41;;;22.12;73.59
78354;BME280;67629;46.040;18.232;2023-09-19T02:07:58;99264.91;;;22.10;73.28
78354;BME280;67629;46.040;18.232;2023-09-19T02:08:30;99267.19;;;22.08;73.64
78354;BME280;67629;46.040;18.232;2023-09-19T02:09:03;99264.75;;;22.06;73.73
78354;BME280;67629;46.040;18.232;2023-09-19T02:09:34;99267.53;;;22.06;73.67
78354;BME280;67629;46.040;18.232;2023-09-19T02:15:18;99257.22;;;21.98;73.77
78354;BME280;67629;46.040;18.232;2023-09-19T02:15:50;99263.94;;;21.97;73.63
78354;BME280;67629;46.040;18.232;2023-09-19T02:16:21;99260.97;;;21.94;73.83
78354;BME280;67629;46.040;18.232;2023-09-19T02:16:51;99263.94;;;21.97;73.85
78354;BME280;67629;46.040;18.232;2023-09-19T02:17:22;99265.06;;;21.96;74.01
78354;BME280;67629;46.040;18.232;2023-09-19T02:17:53;99267.03;;;21.96;74.05
78354;BME280;67629;46.040;18.232;2023-09-19T02:18:24;99263.47;;;21.95;74.13
78354;BME280;67629;46.040;18.232;2023-09-19T02:18:54;99266.50;;;21.85;74.50
78354;BME280;67629;46.040;18.232;2023-09-19T02:19:25;99264.38;;;21.82;75.10
78354;BME280;67629;46.040;18.232;2023-09-19T02:19:56;99258.69;;;21.87;74.48
78354;BME280;67629;46.040;18.232;2023-09-19T02:20:27;99262.91;;;21.85;74.33
78354;BME280;67629;46.040;18.232;2023-09-19T02:20:57;99265.38;;;21.86;74.39
78354;BME280;67629;46.040;18.232;2023-09-19T02:21:29;99260.78;;;21.82;74.93
78354;BME280;67629;46.040;18.232;2023-09-19T02:22:02;99271.25;;;21.85;74.37
78354;BME280;67629;46.040;18.232;2023-09-19T02:22:37;99259.47;;;21.79;74.92
78354;BME280;67629;46.040;18.232;2023-09-19T02:23:10;99266.34;;;21.73;75.03
78354;BME280;67629;46.040;18.232;2023-09-19T02:23:41;99255.56;;;21.72;75.05
78354;BME280;67629;46.040;18.232;2023-09-19T02:24:11;99261.28;;;21.75;74.86
78354;BME280;67629;46.040;18.232;2023-09-19T02:27:29;99266.00;;;21.57;75.53
78354;BME280;67629;46.040;18.232;2023-09-19T02:28:01;99267.81;;;21.62;75.67
78354;BME280;67629;46.040;18.232;2023-09-19T02:28:33;99258.81;;;21.65;75.17
78354;BME280;67629;46.040;18.232;2023-09-19T02:29:05;99257.16;;;21.64;75.27
78354;BME280;67629;46.040;18.232;2023-09-19T02:29:35;99260.78;;;21.65;75.66
78354;BME280;67629;46.040;18.232;2023-09-19T02:30:06;99266.66;;;21.63;75.38
78354;BME280;67629;46.040;18.232;2023-09-19T02:30:37;99269.44;;;21.63;75.14
78354;BME280;67629;46.040;18.232;2023-09-19T02:31:08;99269.44;;;21.63;75.08
78354;BME280;67629;46.040;18.232;2023-09-19T02:31:38;99265.84;;;21.63;75.19
78354;BME280;67629;46.040;18.232;2023-09-19T02:32:09;99272.72;;;21.65;75.28
78354;BME280;67629;46.040;18.232;2023-09-19T02:32:41;99271.72;;;21.61;75.42
78354;BME280;67629;46.040;18.232;2023-09-19T02:33:11;99268.78;;;21.57;75.75
78354;BME280;67629;46.040;18.232;2023-09-19T02:33:42;99267.63;;;21.58;75.25
78354;BME280;67629;46.040;18.232;2023-09-19T02:34:13;99267.97;;;21.57;75.28
78354;BME280;67629;46.040;18.232;2023-09-19T02:34:46;99264.06;;;21.58;75.53
78354;BME280;67629;46.040;18.232;2023-09-19T02:35:17;99273.53;;;21.57;75.65
78354;BME280;67629;46.040;18.232;2023-09-19T02:35:54;99267.97;;;21.57;75.54
78354;BME280;67629;46.040;18.232;2023-09-19T02:36:26;99268.78;;;21.57;75.27
78354;BME280;67629;46.040;18.232;2023-09-19T02:39:09;99277.59;;;21.51;75.96
78354;BME280;67629;46.040;18.232;2023-09-19T02:39:41;99277.25;;;21.52;75.77
78354;BME280;67629;46.040;18.232;2023-09-19T02:40:13;99268.78;;;21.49;75.93
78354;BME280;67629;46.040;18.232;2023-09-19T02:40:56;99268.91;;;21.52;75.86
78354;BME280;67629;46.040;18.232;2023-09-19T02:41:27;99274.81;;;21.51;75.63
78354;BME280;67629;46.040;18.232;2023-09-19T02:42:00;99281.69;;;21.53;76.38
78354;BME280;67629;46.040;18.232;2023-09-19T02:42:30;99282.66;;;21.49;75.89
78354;BME280;67629;46.040;18.232;2023-09-19T02:43:01;99274.34;;;21.49;75.99
78354;BME280;67629;46.040;18.232;2023-09-19T02:43:32;99286.59;;;21.48;76.04
78354;BME280;67629;46.040;18.232;2023-09-19T02:44:04;99278.25;;;21.48;76.11
78354;BME280;67629;46.040;18.232;2023-09-19T02:44:38;99277.59;;;21.51;75.33
78354;BME280;67629;46.040;18.232;2023-09-19T02:45:09;99276.47;;;21.52;75.89
78354;BME280;67629;46.040;18.232;2023-09-19T02:45:40;99277.13;;;21.49;75.75
78354;BME280;67629;46.040;18.232;2023-09-19T02:46:11;99273.81;;;21.47;75.66
78354;BME280;67629;46.040;18.232;2023-09-19T02:46:42;99269.41;;;21.46;76.12
78354;BME280;67629;46.040;18.232;2023-09-19T02:47:12;99271.19;;;21.42;76.38
78354;BME280;67629;46.040;18.232;2023-09-19T02:47:46;99276.91;;;21.37;77.15
78354;BME280;67629;46.040;18.232;2023-09-19T02:48:17;99276.28;;;21.40;77.03
78354;BME280;67629;46.040;18.232;2023-09-19T02:55:17;99268.75;;;21.40;75.29
78354;BME280;67629;46.040;18.232;2023-09-19T02:55:49;99273.50;;;21.40;75.59
78354;BME280;67629;46.040;18.232;2023-09-19T02:56:22;99271.19;;;21.42;75.18
78354;BME280;67629;46.040;18.232;2023-09-19T02:56:53;99274.47;;;21.44;75.07
78354;BME280;67629;46.040;18.232;2023-09-19T02:57:24;99276.75;;;21.42;75.44
78354;BME280;67629;46.040;18.232;2023-09-19T02:57:55;99273.50;;;21.40;75.23
78354;BME280;67629;46.040;18.232;2023-09-19T02:58:25;99274.97;;;21.37;75.90
78354;BME280;67629;46.040;18.232;2023-09-19T02:58:58;99278.88;;;21.36;75.10
78354;BME280;67629;46.040;18.232;2023-09-19T02:59:31;99282.13;;;21.38;75.68
78354;BME280;67629;46.040;18.232;2023-09-19T03:00:04;99281.34;;;21.38;75.46
78354;BME280;67629;46.040;18.232;2023-09-19T03:00:35;99281.00;;;21.39;75.45
78354;BME280;67629;46.040;18.232;2023-09-19T03:01:09;99278.03;;;21.36;74.99
78354;BME280;67629;46.040;18.232;2023-09-19T03:01:45;99275.91;;;21.33;75.39
78354;BME280;67629;46.040;18.232;2023-09-19T03:02:18;99277.22;;;21.35;75.01
78354;BME280;67629;46.040;18.232;2023-09-19T03:02:53;99282.63;;;21.32;75.69
78354;BME280;67629;46.040;18.232;2023-09-19T03:03:24;99279.19;;;21.26;75.66
78354;BME280;67629;46.040;18.232;2023-09-19T03:03:55;99270.50;;;21.28;75.04
78354;BME280;67629;46.040;18.232;2023-09-19T03:04:26;99275.59;;;21.26;75.26
78354;BME280;67629;46.040;18.232;2023-09-19T03:12:11;99271.16;;;21.25;73.76
78354;BME280;67629;46.040;18.232;2023-09-19T03:12:47;99271.63;;;21.27;73.38
78354;BME280;67629;46.040;18.232;2023-09-19T03:13:18;99270.66;;;21.23;73.13
78354;BME280;67629;46.040;18.232;2023-09-19T03:13:52;99271.16;;;21.25;73.09
78354;BME280;67629;46.040;18.232;2023-09-19T03:14:23;99274.13;;;21.28;72.78
78354;BME280;67629;46.040;18.232;2023-09-19T03:14:54;99271.81;;;21.30;72.49
78354;BME280;67629;46.040;18.232;2023-09-19T03:15:25;99276.25;;;21.31;72.45
78354;BME280;67629;46.040;18.232;2023-09-19T03:15:56;99279.34;;;21.30;72.63
78354;BME280;67629;46.040;18.232;2023-09-19T03:16:28;99274.94;;;21.29;72.13
78354;BME280;67629;46.040;18.232;2023-09-19T03:16:59;99277.19;;;21.27;72.45
78354;BME280;67629;46.040;18.232;2023-09-19T03:17:30;99278.03;;;21.27;72.21
78354;BME280;67629;46.040;18.232;2023-09-19T03:18:00;99278.38;;;21.26;72.60
78354;BME280;67629;46.040;18.232;2023-09-19T03:18:33;99289.47;;;21.26;72.43
78354;BME280;67629;46.040;18.232;2023-09-19T03:19:04;99284.56;;;21.23;72.74
78354;BME280;67629;46.040;18.232;2023-09-19T03:19:35;99275.88;;;21.24;72.19
78354;BME280;67629;46.040;18.232;2023-09-19T03:20:08;99275.41;;;21.22;72.06
78354;BME280;67629;46.040;18.232;2023-09-19T03:20:39;99280.97;;;21.22;72.50
78354;BME280;67629;46.040;18.232;2023-09-19T03:21:09;99284.56;;;21.23;72.37
78354;BME280;67629;46.040;18.232;2023-09-19T03:21:40;99277.34;;;21.22;72.80
78354;BME280;67629;46.040;18.232;2023-09-19T03:22:11;99280.13;;;21.22;72.37
78354;BME280;67629;46.040;18.232;2023-09-19T03:22:41;99271.78;;;21.22;72.39
78354;BME280;67629;46.040;18.232;2023-09-19T03:23:12;99273.25;;;21.19;72.44
78354;BME280;67629;46.040;18.232;2023-09-19T03:23:43;99268.84;;;21.18;72.54
78354;BME280;67629;46.040;18.232;2023-09-19T03:24:17;99270.19;;;21.21;72.52
78354;BME280;67629;46.040;18.232;2023-09-19T03:24:47;99266.88;;;21.19;72.27
78354;BME280;67629;46.040;18.232;2023-09-19T03:25:18;99268.50;;;21.11;73.02
78354;BME280;67629;46.040;18.232;2023-09-19T03:25:49;99270.16;;;21.12;72.93
78354;BME280;67629;46.040;18.232;2023-09-19T03:26:20;99268.16;;;21.13;72.76
78354;BME280;67629;46.040;18.232;2023-09-19T03:26:52;99267.38;;;21.12;72.73
78354;BME280;67629;46.040;18.232;2023-09-19T03:27:23;99264.41;;;21.09;72.68
78354;BME280;67629;46.040;18.232;2023-09-19T03:27:56;99269.97;;;21.09;73.02
78354;BME280;67629;46.040;18.232;2023-09-19T03:28:43;99267.69;;;21.11;73.21
78354;BME280;67629;46.040;18.232;2023-09-19T03:29:30;99271.28;;;21.11;72.31
78354;BME280;67629;46.040;18.232;2023-09-19T03:31:28;99265.38;;;21.13;72.21
78354;BME280;67629;46.040;18.232;2023-09-19T03:31:58;99270.94;;;21.13;72.96
78354;BME280;67629;46.040;18.232;2023-09-19T03:32:29;99278.31;;;21.09;72.90
78354;BME280;67629;46.040;18.232;2023-09-19T03:33:00;99274.97;;;21.07;72.54
78354;BME280;67629;46.040;18.232;2023-09-19T03:33:31;99277.75;;;21.07;72.68
78354;BME280;67629;46.040;18.232;2023-09-19T03:34:03;99272.19;;;21.07;72.69
78354;BME280;67629;46.040;18.232;2023-09-19T03:34:38;99271.94;;;21.08;73.01
78354;BME280;67629;46.040;18.232;2023-09-19T03:35:13;99276.66;;;21.08;72.68
78354;BME280;67629;46.040;18.232;2023-09-19T03:35:52;99274.06;;;21.11;72.92
78354;BME280;67629;46.040;18.232;2023-09-19T03:36:23;99270.16;;;21.12;72.78
78354;BME280;67629;46.040;18.232;2023-09-19T03:36:53;99270.94;;;21.13;72.33
78354;BME280;67629;46.040;18.232;2023-09-19T03:37:25;99274.38;;;21.10;72.55
78354;BME280;67629;46.040;18.232;2023-09-19T03:37:56;99273.34;;;21.06;72.97
78354;BME280;67629;46.040;18.232;2023-09-19T03:38:27;99276.78;;;21.02;73.06
78354;BME280;67629;46.040;18.232;2023-09-19T03:38:59;99268.25;;;20.99;73.05
78354;BME280;67629;46.040;18.232;2023-09-19T03:39:30;99271.38;;;20.97;73.02
78354;BME280;67629;46.040;18.232;2023-09-19T03:40:00;99266.13;;;20.96;73.26
78354;BME280;67629;46.040;18.232;2023-09-19T03:40:35;99268.41;;;20.94;73.93
78354;BME280;67629;46.040;18.232;2023-09-19T03:46:20;99254.50;;;20.85;74.26
78354;BME280;67629;46.040;18.232;2023-09-19T03:46:51;99266.09;;;20.87;74.31
78354;BME280;67629;46.040;18.232;2023-09-19T03:47:21;99256.94;;;20.87;73.56
78354;BME280;67629;46.040;18.232;2023-09-19T03:47:52;99261.03;;;20.89;73.78
78354;BME280;67629;46.040;18.232;2023-09-19T03:48:23;99261.66;;;20.86;74.06
78354;BME280;67629;46.040;18.232;2023-09-19T03:48:53;99259.22;;;20.85;74.58
78354;BME280;67629;46.040;18.232;2023-09-19T03:49:25;99262.00;;;20.85;74.46
78354;BME280;67629;46.040;18.232;2023-09-19T03:49:55;99257.75;;;20.87;74.61
78354;BME280;67629;46.040;18.232;2023-09-19T03:50:26;99254.78;;;20.84;74.60
78354;BME280;67629;46.040;18.232;2023-09-19T03:50:56;99258.41;;;20.84;74.60
78354;BME280;67629;46.040;18.232;2023-09-19T03:51:27;99247.63;;;20.83;74.31
78354;BME280;67629;46.040;18.232;2023-09-19T03:51:58;99249.56;;;20.82;74.47
78354;BME280;67629;46.040;18.232;2023-09-19T03:52:29;99258.72;;;20.83;74.08
78354;BME280;67629;46.040;18.232;2023-09-19T03:52:59;99256.78;;;20.83;74.67
78354;BME280;67629;46.040;18.232;2023-09-19T03:53:31;99255.13;;;20.82;74.50
78354;BME280;67629;46.040;18.232;2023-09-19T03:54:02;99255.63;;;20.84;75.04